createdAt,value
2023-03-11T00:00:19.131Z,984.68
2023-03-11T00:01:19.051Z,984.66
2023-03-11T00:02:19.006Z,984.73
2023-03-11T00:03:39.894Z,984.83
2023-03-11T00:04:18.838Z,984.89
2023-03-11T00:05:18.790Z,984.93
2023-03-11T00:06:18.707Z,985.01
2023-03-11T00:07:18.621Z,985.07
2023-03-11T00:08:18.556Z,985.00
2023-03-11T00:09:39.476Z,985.06
2023-03-11T00:10:18.414Z,985.09
2023-03-11T00:11:18.351Z,985.15
2023-03-11T00:12:18.273Z,985.10
2023-03-11T00:13:18.210Z,985.19
2023-03-11T00:14:18.130Z,985.22
2023-03-11T00:15:39.046Z,985.16
2023-03-11T00:16:18.009Z,985.23
2023-03-11T00:17:17.914Z,985.23
2023-03-11T00:18:17.854Z,985.26
2023-03-11T00:19:17.777Z,985.29
2023-03-11T00:20:17.698Z,985.29
2023-03-11T00:21:38.620Z,985.28
2023-03-11T00:22:17.589Z,985.30
2023-03-11T00:23:17.481Z,985.40
2023-03-11T00:24:17.414Z,985.37
2023-03-11T00:25:17.342Z,985.41
2023-03-11T00:26:17.299Z,985.43
2023-03-11T00:27:38.186Z,985.45
2023-03-11T00:28:17.129Z,985.46
2023-03-11T00:29:17.067Z,985.52
2023-03-11T00:30:16.989Z,985.53
2023-03-11T00:31:17.006Z,985.54
2023-03-11T00:32:16.896Z,985.58
2023-03-11T00:33:37.749Z,985.61
2023-03-11T00:34:16.692Z,985.57
2023-03-11T00:35:16.631Z,985.60
2023-03-11T00:36:16.559Z,985.61
2023-03-11T00:37:16.485Z,985.68
2023-03-11T00:38:16.413Z,985.71
2023-03-11T00:39:37.335Z,985.74
2023-03-11T00:40:16.266Z,985.73
2023-03-11T00:41:16.198Z,985.73
2023-03-11T00:42:16.125Z,985.76
2023-03-11T00:43:17.044Z,985.80
2023-03-11T00:44:15.977Z,985.83
2023-03-11T00:45:36.905Z,985.83
2023-03-11T00:46:15.886Z,985.80
2023-03-11T00:47:15.771Z,985.80
2023-03-11T00:48:15.687Z,985.86
2023-03-11T00:49:15.651Z,985.87
2023-03-11T00:50:15.556Z,985.96
2023-03-11T00:51:36.459Z,985.91
2023-03-11T00:52:15.401Z,985.98
2023-03-11T00:53:15.335Z,985.89
2023-03-11T00:54:15.258Z,985.92
2023-03-11T00:55:15.194Z,985.95
2023-03-11T00:56:15.115Z,985.90
2023-03-11T00:57:36.028Z,985.97
2023-03-11T00:58:14.969Z,986.01
2023-03-11T00:59:14.900Z,986.01
2023-03-11T01:00:14.837Z,985.99
2023-03-11T01:01:14.814Z,986.04
2023-03-11T01:02:14.694Z,986.11
2023-03-11T01:03:35.597Z,986.11
2023-03-11T01:04:14.569Z,986.14
2023-03-11T01:05:14.473Z,986.15
2023-03-11T01:06:14.395Z,986.25
2023-03-11T01:07:14.329Z,986.21
2023-03-11T01:08:14.250Z,986.29
2023-03-11T01:09:35.166Z,986.32
2023-03-11T01:10:14.104Z,986.34
2023-03-11T01:11:14.053Z,986.35
2023-03-11T01:12:13.969Z,986.38
2023-03-11T01:13:13.898Z,986.39
2023-03-11T01:14:13.821Z,986.44
2023-03-11T01:15:34.799Z,986.45
2023-03-11T01:16:13.746Z,986.47
2023-03-11T01:17:13.608Z,986.48
2023-03-11T01:18:13.537Z,986.56
2023-03-11T01:19:14.090Z,986.56
2023-03-11T01:20:13.385Z,986.63
2023-03-11T01:21:34.303Z,986.66
2023-03-11T01:22:13.244Z,986.61
2023-03-11T01:23:13.176Z,986.70
2023-03-11T01:24:13.104Z,986.74
2023-03-11T01:25:13.042Z,986.81
2023-03-11T01:26:12.953Z,986.83
2023-03-11T01:27:33.890Z,986.88
2023-03-11T01:28:12.816Z,986.82
2023-03-11T01:29:12.748Z,986.92
2023-03-11T01:30:12.681Z,986.97
2023-03-11T01:31:12.681Z,986.91
2023-03-11T01:32:12.560Z,986.95
2023-03-11T01:33:33.447Z,987.07
2023-03-11T01:34:12.383Z,987.10
2023-03-11T01:35:12.314Z,987.19
2023-03-11T01:36:12.243Z,987.13
2023-03-11T01:37:12.167Z,987.25
2023-03-11T01:38:12.113Z,987.25
2023-03-11T01:39:33.008Z,987.31
2023-03-11T01:40:11.961Z,987.22
2023-03-11T01:41:11.878Z,987.31
2023-03-11T01:42:11.814Z,987.35
2023-03-11T01:43:11.738Z,987.43
2023-03-11T01:44:11.664Z,987.46
2023-03-11T01:45:32.574Z,987.44
2023-03-11T01:46:11.546Z,987.45
2023-03-11T01:47:11.447Z,987.48
2023-03-11T01:48:11.378Z,987.52
2023-03-11T01:49:11.302Z,987.56
2023-03-11T01:50:11.240Z,987.61
2023-03-11T01:51:32.147Z,987.64
2023-03-11T01:52:11.079Z,987.61
2023-03-11T01:53:11.027Z,987.75
2023-03-11T01:54:10.935Z,987.72
2023-03-11T01:55:10.872Z,987.70
2023-03-11T01:56:10.798Z,987.78
2023-03-11T01:57:31.707Z,987.83
2023-03-11T01:58:10.660Z,987.82
2023-03-11T01:59:10.580Z,987.87
2023-03-11T02:00:10.573Z,987.98
2023-03-11T02:01:10.445Z,987.97
2023-03-11T02:02:10.632Z,987.99
2023-03-11T02:03:31.281Z,987.95
2023-03-11T02:04:10.222Z,988.00
2023-03-11T02:05:10.150Z,988.11
2023-03-11T02:06:10.100Z,988.05
2023-03-11T02:07:10.013Z,988.19
2023-03-11T02:08:09.944Z,988.14
2023-03-11T02:09:30.863Z,988.20
2023-03-11T02:10:09.788Z,988.18
2023-03-11T02:11:09.729Z,988.28
2023-03-11T02:12:09.655Z,988.25
2023-03-11T02:13:09.586Z,988.33
2023-03-11T02:14:09.512Z,988.16
2023-03-11T02:15:30.434Z,988.32
2023-03-11T02:16:09.399Z,988.43
2023-03-11T02:17:09.310Z,988.48
2023-03-11T02:18:09.230Z,988.49
2023-03-11T02:19:09.156Z,988.41
2023-03-11T02:20:09.075Z,988.51
2023-03-11T02:21:29.991Z,988.58
2023-03-11T02:22:08.938Z,988.71
2023-03-11T02:23:08.864Z,988.70
2023-03-11T02:24:08.786Z,988.70
2023-03-11T02:25:08.724Z,988.78
2023-03-11T02:26:08.656Z,988.78
2023-03-11T02:27:29.565Z,988.89
2023-03-11T02:28:08.502Z,988.99
2023-03-11T02:29:08.443Z,988.81
2023-03-11T02:30:08.355Z,988.92
2023-03-11T02:31:08.342Z,989.00
2023-03-11T02:32:08.213Z,989.02
2023-03-11T02:33:29.127Z,989.19
2023-03-11T02:34:08.073Z,989.19
2023-03-11T02:35:08.026Z,989.21
2023-03-11T02:36:08.031Z,989.32
2023-03-11T02:37:07.858Z,989.30
2023-03-11T02:38:07.784Z,989.31
2023-03-11T02:39:28.707Z,989.39
2023-03-11T02:40:07.641Z,989.38
2023-03-11T02:41:07.582Z,989.48
2023-03-11T02:42:07.499Z,989.44
2023-03-11T02:43:07.437Z,989.41
2023-03-11T02:44:07.352Z,989.49
2023-03-11T02:45:28.270Z,989.56
2023-03-11T02:46:07.208Z,989.48
2023-03-11T02:47:07.225Z,989.73
2023-03-11T02:48:07.060Z,989.66
2023-03-11T02:49:07.000Z,989.69
2023-03-11T02:50:06.919Z,989.68
2023-03-11T02:51:27.832Z,989.80
2023-03-11T02:52:06.783Z,989.77
2023-03-11T02:53:06.710Z,989.79
2023-03-11T02:54:06.633Z,989.87
2023-03-11T02:55:06.617Z,989.88
2023-03-11T02:56:06.491Z,989.92
2023-03-11T02:57:27.467Z,990.01
2023-03-11T02:58:06.345Z,989.93
2023-03-11T02:59:06.272Z,990.07
2023-03-11T03:00:06.201Z,990.12
2023-03-11T03:01:06.163Z,990.13
2023-03-11T03:02:06.052Z,990.13
2023-03-11T03:03:26.970Z,990.11
2023-03-11T03:04:05.960Z,990.05
2023-03-11T03:05:05.848Z,990.26
2023-03-11T03:06:05.766Z,990.29
2023-03-11T03:07:05.704Z,990.29
2023-03-11T03:08:05.622Z,990.30
2023-03-11T03:09:26.541Z,990.39
2023-03-11T03:10:05.490Z,990.48
2023-03-11T03:11:05.414Z,990.43
2023-03-11T03:12:05.337Z,990.49
2023-03-11T03:13:05.266Z,990.46
2023-03-11T03:14:05.201Z,990.47
2023-03-11T03:15:26.109Z,990.62
2023-03-11T03:16:05.135Z,990.60
2023-03-11T03:17:05.146Z,990.71
2023-03-11T03:18:04.934Z,990.67
2023-03-11T03:19:04.846Z,990.74
2023-03-11T03:20:04.784Z,990.86
2023-03-11T03:21:25.676Z,990.81
2023-03-11T03:22:04.617Z,990.81
2023-03-11T03:23:04.554Z,990.88
2023-03-11T03:24:04.472Z,990.93
2023-03-11T03:25:04.402Z,991.00
2023-03-11T03:26:04.328Z,991.02
2023-03-11T03:27:25.253Z,990.96
2023-03-11T03:28:04.239Z,991.09
2023-03-11T03:29:04.119Z,991.08
2023-03-11T03:30:04.051Z,991.05
2023-03-11T03:31:03.980Z,991.08
2023-03-11T03:32:04.039Z,991.21
2023-03-11T03:33:24.889Z,991.22
2023-03-11T03:34:03.757Z,991.20
2023-03-11T03:35:03.689Z,991.29
2023-03-11T03:36:03.654Z,991.34
2023-03-11T03:37:03.556Z,991.41
2023-03-11T03:38:03.470Z,991.39
2023-03-11T03:39:24.378Z,991.49
2023-03-11T03:40:03.328Z,991.50
2023-03-11T03:41:03.267Z,991.51
2023-03-11T03:42:03.183Z,991.46
2023-03-11T03:43:03.121Z,991.57
2023-03-11T03:44:03.041Z,991.66
2023-03-11T03:45:23.984Z,991.67
2023-03-11T03:46:03.036Z,991.64
2023-03-11T03:47:02.830Z,991.79
2023-03-11T03:48:02.749Z,991.82
2023-03-11T03:49:02.720Z,991.72
2023-03-11T03:50:02.603Z,991.77
2023-03-11T03:51:23.523Z,991.79
2023-03-11T03:52:02.458Z,991.88
2023-03-11T03:53:02.385Z,991.88
2023-03-11T03:54:02.321Z,992.04
2023-03-11T03:55:02.249Z,992.05
2023-03-11T03:56:02.178Z,992.07
2023-03-11T03:57:23.089Z,992.12
2023-03-11T03:58:02.032Z,992.18
2023-03-11T03:59:01.965Z,992.18
2023-03-11T04:00:01.890Z,992.27
2023-03-11T04:01:01.819Z,992.31
2023-03-11T04:02:01.780Z,992.29
2023-03-11T04:03:22.711Z,992.37
2023-03-11T04:04:01.607Z,992.29
2023-03-11T04:05:01.534Z,992.36
2023-03-11T04:06:01.482Z,992.43
2023-03-11T04:07:01.390Z,992.46
2023-03-11T04:08:01.325Z,992.40
2023-03-11T04:09:22.229Z,992.47
2023-03-11T04:10:01.171Z,992.48
2023-03-11T04:11:01.126Z,992.55
2023-03-11T04:12:01.034Z,992.56
2023-03-11T04:13:00.967Z,992.61
2023-03-11T04:14:00.883Z,992.58
2023-03-11T04:15:21.817Z,992.61
2023-03-11T04:16:01.673Z,992.64
2023-03-11T04:17:00.742Z,992.76
2023-03-11T04:18:00.654Z,992.74
2023-03-11T04:19:00.534Z,992.70
2023-03-11T04:20:00.464Z,992.75
2023-03-11T04:21:21.367Z,992.89
2023-03-11T04:22:00.334Z,992.82
2023-03-11T04:23:00.238Z,992.90
2023-03-11T04:24:00.158Z,992.86
2023-03-11T04:25:00.111Z,992.89
2023-03-11T04:26:00.040Z,992.91
2023-03-11T04:27:20.942Z,992.92
2023-03-11T04:27:59.889Z,993.04
2023-03-11T04:28:59.816Z,993.02
2023-03-11T04:29:59.739Z,992.98
2023-03-11T04:30:59.740Z,993.06
2023-03-11T04:31:59.588Z,993.02
2023-03-11T04:33:20.505Z,993.11
2023-03-11T04:33:59.439Z,993.05
2023-03-11T04:34:59.386Z,993.15
2023-03-11T04:35:59.398Z,993.14
2023-03-11T04:36:59.227Z,993.23
2023-03-11T04:37:59.156Z,993.23
2023-03-11T04:39:20.063Z,993.26
2023-03-11T04:39:59.021Z,993.28
2023-03-11T04:40:58.934Z,993.34
2023-03-11T04:41:58.867Z,993.39
2023-03-11T04:42:58.805Z,993.41
2023-03-11T04:43:58.718Z,993.38
2023-03-11T04:45:19.660Z,993.41
2023-03-11T04:45:58.637Z,993.52
2023-03-11T04:46:58.501Z,993.53
2023-03-11T04:47:58.436Z,993.46
2023-03-11T04:48:58.360Z,993.47
2023-03-11T04:49:58.290Z,993.61
2023-03-11T04:51:19.206Z,993.57
2023-03-11T04:51:58.165Z,993.64
2023-03-11T04:52:58.090Z,993.64
2023-03-11T04:53:58.054Z,993.63
2023-03-11T04:54:57.928Z,993.68
2023-03-11T04:55:57.853Z,993.72
2023-03-11T04:57:18.776Z,993.74
2023-03-11T04:57:57.719Z,993.78
2023-03-11T04:58:57.642Z,993.82
2023-03-11T04:59:57.581Z,993.83
2023-03-11T05:00:57.499Z,993.91
2023-03-11T05:01:57.443Z,993.83
2023-03-11T05:03:18.406Z,993.96
2023-03-11T05:03:57.285Z,994.01
2023-03-11T05:04:57.272Z,994.02
2023-03-11T05:05:57.163Z,993.99
2023-03-11T05:06:57.073Z,994.06
2023-03-11T05:07:56.995Z,994.05
2023-03-11T05:09:17.908Z,994.04
2023-03-11T05:09:56.861Z,994.20
2023-03-11T05:10:56.827Z,994.16
2023-03-11T05:11:56.714Z,994.24
2023-03-11T05:12:56.641Z,994.25
2023-03-11T05:13:56.565Z,994.30
2023-03-11T05:15:17.496Z,994.34
2023-03-11T05:15:56.463Z,994.18
2023-03-11T05:16:56.356Z,994.35
2023-03-11T05:17:56.300Z,994.46
2023-03-11T05:18:56.207Z,994.41
2023-03-11T05:19:56.187Z,994.41
2023-03-11T05:21:17.059Z,994.51
2023-03-11T05:21:55.989Z,994.59
2023-03-11T05:22:55.913Z,994.55
2023-03-11T05:23:55.845Z,994.57
2023-03-11T05:24:55.782Z,994.56
2023-03-11T05:25:55.709Z,994.52
2023-03-11T05:27:16.622Z,994.63
2023-03-11T05:27:55.565Z,994.61
2023-03-11T05:28:55.488Z,994.67
2023-03-11T05:29:55.418Z,994.70
2023-03-11T05:30:55.418Z,994.69
2023-03-11T05:31:55.293Z,994.65
2023-03-11T05:33:16.181Z,994.76
2023-03-11T05:33:55.143Z,994.78
2023-03-11T05:34:55.051Z,994.83
2023-03-11T05:35:55.091Z,994.89
2023-03-11T05:36:54.920Z,994.92
2023-03-11T05:37:54.888Z,994.97
2023-03-11T05:39:15.754Z,995.00
2023-03-11T05:39:54.720Z,994.97
2023-03-11T05:40:54.624Z,994.97
2023-03-11T05:41:54.575Z,995.04
2023-03-11T05:42:54.551Z,995.10
2023-03-11T05:43:54.413Z,995.08
2023-03-11T05:45:15.330Z,995.15
2023-03-11T05:45:54.270Z,995.16
2023-03-11T05:46:54.286Z,995.24
2023-03-11T05:47:54.131Z,995.19
2023-03-11T05:48:54.052Z,995.21
2023-03-11T05:49:53.987Z,995.20
2023-03-11T05:51:14.891Z,995.24
2023-03-11T05:51:53.847Z,995.26
2023-03-11T05:52:53.768Z,995.34
2023-03-11T05:53:53.707Z,995.29
2023-03-11T05:54:53.623Z,995.35
2023-03-11T05:55:53.558Z,995.34
2023-03-11T05:57:14.469Z,995.40
2023-03-11T05:57:53.494Z,995.40
2023-03-11T05:58:53.340Z,995.36
2023-03-11T05:59:53.275Z,995.44
2023-03-11T06:00:53.226Z,995.45
2023-03-11T06:01:53.124Z,995.44
2023-03-11T06:03:14.030Z,995.44
2023-03-11T06:03:53.119Z,995.51
2023-03-11T06:04:53.114Z,995.58
2023-03-11T06:05:52.840Z,995.56
2023-03-11T06:06:52.783Z,995.60
2023-03-11T06:07:52.696Z,995.58
2023-03-11T06:09:13.629Z,995.63
2023-03-11T06:09:52.551Z,995.66
2023-03-11T06:10:52.484Z,995.68
2023-03-11T06:11:52.403Z,995.71
2023-03-11T06:12:52.328Z,995.72
2023-03-11T06:13:52.293Z,995.66
2023-03-11T06:15:13.202Z,995.70
2023-03-11T06:15:52.169Z,995.74
2023-03-11T06:16:52.707Z,995.68
2023-03-11T06:17:51.979Z,995.77
2023-03-11T06:18:51.900Z,995.87
2023-03-11T06:19:51.833Z,995.84
2023-03-11T06:21:12.736Z,995.86
2023-03-11T06:21:51.692Z,995.84
2023-03-11T06:22:51.614Z,995.86
2023-03-11T06:23:51.550Z,995.85
2023-03-11T06:24:51.470Z,995.96
2023-03-11T06:25:51.406Z,995.94
2023-03-11T06:27:12.348Z,996.01
2023-03-11T06:27:51.269Z,995.96
2023-03-11T06:28:51.182Z,996.01
2023-03-11T06:29:51.118Z,996.08
2023-03-11T06:30:51.062Z,996.08
2023-03-11T06:31:51.110Z,996.12
2023-03-11T06:33:11.891Z,996.09
2023-03-11T06:33:50.837Z,996.17
2023-03-11T06:34:50.821Z,996.21
2023-03-11T06:35:50.734Z,996.24
2023-03-11T06:36:50.636Z,996.24
2023-03-11T06:37:50.556Z,996.24
2023-03-11T06:39:11.466Z,996.29
2023-03-11T06:39:50.402Z,996.31
2023-03-11T06:40:50.337Z,996.32
2023-03-11T06:41:50.251Z,996.37
2023-03-11T06:42:50.199Z,996.37
2023-03-11T06:43:50.109Z,996.35
2023-03-11T06:45:11.028Z,996.40
2023-03-11T06:45:50.089Z,996.43
2023-03-11T06:46:49.899Z,996.48
2023-03-11T06:47:49.827Z,996.51
2023-03-11T06:48:49.757Z,996.51
2023-03-11T06:49:49.698Z,996.58
2023-03-11T06:51:10.588Z,996.67
2023-03-11T06:51:49.560Z,996.68
2023-03-11T06:52:49.470Z,996.72
2023-03-11T06:53:49.413Z,996.76
2023-03-11T06:54:49.321Z,996.80
2023-03-11T06:55:49.257Z,996.80
2023-03-11T06:57:10.162Z,996.93
2023-03-11T06:57:49.116Z,996.94
2023-03-11T06:58:49.042Z,996.95
2023-03-11T06:59:48.970Z,996.91
2023-03-11T07:00:48.925Z,997.02
2023-03-11T07:01:48.828Z,997.01
2023-03-11T07:03:09.735Z,997.04
2023-03-11T07:03:48.725Z,997.06
2023-03-11T07:04:48.608Z,997.14
2023-03-11T07:05:48.553Z,997.14
2023-03-11T07:06:48.480Z,997.10
2023-03-11T07:07:48.396Z,997.20
2023-03-11T07:09:09.310Z,997.13
2023-03-11T07:09:48.277Z,997.17
2023-03-11T07:10:48.189Z,997.18
2023-03-11T07:11:48.108Z,997.12
2023-03-11T07:12:48.054Z,997.20
2023-03-11T07:13:47.971Z,997.24
2023-03-11T07:15:08.888Z,997.29
2023-03-11T07:15:47.831Z,997.26
2023-03-11T07:16:47.870Z,997.36
2023-03-11T07:17:47.694Z,997.31
2023-03-11T07:18:47.645Z,997.40
2023-03-11T07:19:47.544Z,997.43
2023-03-11T07:21:08.464Z,997.37
2023-03-11T07:21:47.434Z,997.38
2023-03-11T07:22:47.329Z,997.43
2023-03-11T07:23:47.271Z,997.50
2023-03-11T07:24:47.183Z,997.51
2023-03-11T07:25:47.174Z,997.55
2023-03-11T07:27:08.026Z,997.63
2023-03-11T07:27:46.983Z,997.66
2023-03-11T07:28:46.896Z,997.61
2023-03-11T07:29:46.850Z,997.68
2023-03-11T07:30:46.762Z,997.69
2023-03-11T07:31:46.699Z,997.74
2023-03-11T07:33:07.597Z,997.78
2023-03-11T07:33:46.548Z,997.85
2023-03-11T07:34:46.475Z,997.96
2023-03-11T07:35:46.425Z,997.88
2023-03-11T07:36:46.354Z,997.98
2023-03-11T07:37:46.258Z,997.93
2023-03-11T07:39:07.170Z,997.86
2023-03-11T07:39:46.119Z,997.91
2023-03-11T07:40:46.048Z,997.96
2023-03-11T07:41:45.997Z,998.03
2023-03-11T07:42:45.902Z,998.08
2023-03-11T07:43:45.841Z,998.11
2023-03-11T07:45:06.740Z,998.12
2023-03-11T07:45:45.725Z,998.14
2023-03-11T07:46:45.617Z,998.18
2023-03-11T07:47:45.558Z,998.18
2023-03-11T07:48:45.490Z,998.23
2023-03-11T07:49:45.432Z,998.21
2023-03-11T07:51:06.321Z,998.24
2023-03-11T07:51:45.272Z,998.24
2023-03-11T07:52:45.188Z,998.29
2023-03-11T07:53:45.141Z,998.35
2023-03-11T07:54:45.050Z,998.33
2023-03-11T07:55:44.982Z,998.36
2023-03-11T07:57:05.896Z,998.34
2023-03-11T07:57:44.838Z,998.44
2023-03-11T07:58:45.896Z,998.46
2023-03-11T07:59:44.708Z,998.45
2023-03-11T08:00:44.646Z,998.45
2023-03-11T08:01:44.581Z,998.46
2023-03-11T08:03:05.478Z,998.50
2023-03-11T08:03:44.453Z,998.53
2023-03-11T08:04:44.362Z,998.63
2023-03-11T08:05:44.292Z,998.64
2023-03-11T08:06:44.216Z,998.63
2023-03-11T08:07:44.147Z,998.67
2023-03-11T08:09:05.068Z,998.61
2023-03-11T08:09:44.004Z,998.72
2023-03-11T08:10:43.938Z,998.85
2023-03-11T08:11:43.870Z,998.77
2023-03-11T08:12:43.801Z,998.72
2023-03-11T08:13:43.731Z,998.67
2023-03-11T08:15:04.650Z,998.80
2023-03-11T08:15:43.613Z,998.84
2023-03-11T08:16:43.526Z,998.97
2023-03-11T08:17:43.450Z,998.88
2023-03-11T08:18:43.383Z,998.89
2023-03-11T08:19:43.326Z,998.86
2023-03-11T08:21:04.223Z,998.95
2023-03-11T08:21:43.190Z,998.88
2023-03-11T08:22:55.687Z,998.89
2023-03-11T08:23:43.050Z,998.94
2023-03-11T08:24:42.994Z,998.86
2023-03-11T08:25:42.960Z,998.99
2023-03-11T08:27:03.817Z,999.10
2023-03-11T08:27:42.765Z,999.06
2023-03-11T08:28:42.698Z,998.97
2023-03-11T08:29:42.704Z,999.06
2023-03-11T08:30:42.727Z,999.12
2023-03-11T08:31:42.494Z,999.16
2023-03-11T08:33:03.409Z,999.19
2023-03-11T08:33:42.366Z,999.19
2023-03-11T08:34:42.291Z,999.33
2023-03-11T08:35:42.252Z,999.40
2023-03-11T08:36:42.146Z,999.47
2023-03-11T08:37:42.078Z,999.36
2023-03-11T08:39:03.050Z,999.53
2023-03-11T08:39:42.014Z,999.59
2023-03-11T08:40:41.893Z,999.54
2023-03-11T08:41:41.811Z,999.47
2023-03-11T08:42:41.738Z,999.42
2023-03-11T08:43:41.695Z,999.43
2023-03-11T08:45:02.597Z,999.42
2023-03-11T08:45:41.550Z,999.48
2023-03-11T08:46:41.516Z,999.47
2023-03-11T08:47:41.470Z,999.59
2023-03-11T08:48:41.432Z,999.64
2023-03-11T08:49:41.268Z,999.65
2023-03-11T08:51:02.181Z,999.67
2023-03-11T08:51:41.134Z,999.73
2023-03-11T08:52:41.061Z,999.74
2023-03-11T08:53:41.002Z,999.78
2023-03-11T08:54:40.926Z,999.59
2023-03-11T08:55:40.875Z,999.79
2023-03-11T08:57:01.792Z,999.74
2023-03-11T08:57:40.729Z,999.73
2023-03-11T08:58:40.656Z,999.82
2023-03-11T08:59:40.599Z,999.86
2023-03-11T09:00:40.528Z,999.85
2023-03-11T09:01:40.472Z,999.88
2023-03-11T09:03:01.471Z,999.87
2023-03-11T09:03:40.328Z,999.81
2023-03-11T09:04:40.253Z,999.92
2023-03-11T09:05:40.224Z,999.92
2023-03-11T09:06:40.122Z,999.89
2023-03-11T09:07:40.064Z,999.92
2023-03-11T09:09:00.970Z,999.98
2023-03-11T09:09:39.914Z,999.94
2023-03-11T09:10:39.849Z,999.99
2023-03-11T09:11:39.774Z,1000.11
2023-03-11T09:12:39.713Z,1000.06
2023-03-11T09:13:39.648Z,1000.07
2023-03-11T09:15:00.592Z,1000.10
2023-03-11T09:15:39.504Z,1000.10
2023-03-11T09:16:39.437Z,1000.06
2023-03-11T09:17:39.370Z,1000.01
2023-03-11T09:18:39.305Z,1000.10
2023-03-11T09:19:39.234Z,1000.08
2023-03-11T09:21:00.170Z,1000.06
2023-03-11T09:21:39.107Z,1000.14
2023-03-11T09:22:39.038Z,1000.17
2023-03-11T09:23:38.982Z,1000.18
2023-03-11T09:24:38.894Z,1000.18
2023-03-11T09:25:38.832Z,1000.21
2023-03-11T09:26:59.748Z,1000.20
2023-03-11T09:27:38.695Z,1000.16
2023-03-11T09:28:38.626Z,1000.20
2023-03-11T09:29:38.552Z,1000.26
2023-03-11T09:30:38.485Z,1000.20
2023-03-11T09:31:38.523Z,1000.30
2023-03-11T09:32:59.351Z,1000.22
2023-03-11T09:33:38.283Z,1000.31
2023-03-11T09:34:38.214Z,1000.39
2023-03-11T09:35:38.208Z,1000.41
2023-03-11T09:36:38.068Z,1000.42
2023-03-11T09:37:37.997Z,1000.50
2023-03-11T09:38:58.928Z,1000.47
2023-03-11T09:39:37.860Z,1000.45
2023-03-11T09:40:37.807Z,1000.52
2023-03-11T09:41:45.045Z,1000.39
2023-03-11T09:42:37.667Z,1000.52
2023-03-11T09:43:37.586Z,1000.53
2023-03-11T09:44:58.520Z,1000.64
2023-03-11T09:45:37.453Z,1000.62
2023-03-11T09:46:37.400Z,1000.64
2023-03-11T09:47:37.320Z,1000.68
2023-03-11T09:48:37.252Z,1000.66
2023-03-11T09:49:37.175Z,1000.60
2023-03-11T09:50:58.097Z,1000.63
2023-03-11T09:51:37.038Z,1000.66
2023-03-11T09:52:36.986Z,1000.64
2023-03-11T09:53:36.907Z,1000.72
2023-03-11T09:54:36.847Z,1000.74
2023-03-11T09:55:36.771Z,1000.72
2023-03-11T09:56:57.694Z,1000.75
2023-03-11T09:57:36.635Z,1000.77
2023-03-11T09:58:36.590Z,1000.76
2023-03-11T09:59:36.501Z,1000.77
2023-03-11T10:00:36.436Z,1000.82
2023-03-11T10:01:36.383Z,1000.82
2023-03-11T10:02:57.320Z,1000.85
2023-03-11T10:03:39.303Z,1000.93
2023-03-11T10:04:36.191Z,1000.84
2023-03-11T10:05:36.098Z,1000.87
2023-03-11T10:06:36.031Z,1000.90
2023-03-11T10:07:35.976Z,1000.90
2023-03-11T10:08:56.893Z,1000.93
2023-03-11T10:09:37.579Z,1000.96
2023-03-11T10:10:35.767Z,1000.89
2023-03-11T10:11:35.698Z,1000.96
2023-03-11T10:12:35.635Z,1000.90
2023-03-11T10:13:35.564Z,1000.97
2023-03-11T10:14:56.512Z,1001.00
2023-03-11T10:15:37.089Z,1000.97
2023-03-11T10:16:35.426Z,1000.94
2023-03-11T10:17:35.302Z,1000.96
2023-03-11T10:18:35.253Z,1001.01
2023-03-11T10:19:35.165Z,1001.03
2023-03-11T10:20:56.084Z,1001.09
2023-03-11T10:21:35.028Z,1001.05
2023-03-11T10:22:34.973Z,1001.09
2023-03-11T10:23:34.910Z,1001.12
2023-03-11T10:24:34.847Z,1001.19
2023-03-11T10:25:34.756Z,1001.16
2023-03-11T10:26:55.687Z,1001.28
2023-03-11T10:27:34.629Z,1001.23
2023-03-11T10:28:34.585Z,1001.20
2023-03-11T10:29:34.503Z,1001.23
2023-03-11T10:30:34.432Z,1001.19
2023-03-11T10:31:34.400Z,1001.11
2023-03-11T10:32:55.320Z,1001.24
2023-03-11T10:33:34.226Z,1001.33
2023-03-11T10:34:34.190Z,1001.27
2023-03-11T10:35:34.248Z,1001.26
2023-03-11T10:36:34.041Z,1001.12
2023-03-11T10:37:48.422Z,1001.29
2023-03-11T10:38:54.888Z,1001.30
2023-03-11T10:39:33.829Z,1001.29
2023-03-11T10:40:33.769Z,1001.29
2023-03-11T10:41:33.699Z,1001.34
2023-03-11T10:42:33.633Z,1001.32
2023-03-11T10:43:33.566Z,1001.27
2023-03-11T10:44:54.493Z,1001.43
2023-03-11T10:45:33.455Z,1001.36
2023-03-11T10:46:33.384Z,1001.41
2023-03-11T10:47:33.295Z,1001.36
2023-03-11T10:48:33.235Z,1001.40
2023-03-11T10:49:33.168Z,1001.45
2023-03-11T10:50:54.087Z,1001.38
2023-03-11T10:51:33.023Z,1001.42
2023-03-11T10:52:32.957Z,1001.38
2023-03-11T10:53:32.899Z,1001.32
2023-03-11T10:54:32.829Z,1001.45
2023-03-11T10:55:32.778Z,1001.48
2023-03-11T10:56:53.679Z,1001.47
2023-03-11T10:57:32.622Z,1001.55
2023-03-11T10:58:32.555Z,1001.57
2023-03-11T10:59:32.489Z,1001.53
2023-03-11T11:00:32.431Z,1001.59
2023-03-11T11:01:32.436Z,1001.53
2023-03-11T11:02:53.268Z,1001.56
2023-03-11T11:03:32.229Z,1001.59
2023-03-11T11:04:32.210Z,1001.59
2023-03-11T11:05:32.071Z,1001.58
2023-03-11T11:06:32.028Z,1001.62
2023-03-11T11:07:31.963Z,1001.62
2023-03-11T11:08:52.869Z,1001.61
2023-03-11T11:09:31.801Z,1001.61
2023-03-11T11:10:31.740Z,1001.61
2023-03-11T11:11:31.707Z,1001.59
2023-03-11T11:12:31.611Z,1001.66
2023-03-11T11:13:31.529Z,1001.67
2023-03-11T11:14:52.465Z,1001.67
2023-03-11T11:15:31.403Z,1001.71
2023-03-11T11:16:31.449Z,1001.68
2023-03-11T11:17:31.255Z,1001.71
2023-03-11T11:18:31.256Z,1001.72
2023-03-11T11:19:31.115Z,1001.68
2023-03-11T11:20:52.045Z,1001.76
2023-03-11T11:21:30.975Z,1001.72
2023-03-11T11:22:30.925Z,1001.67
2023-03-11T11:23:30.850Z,1001.73
2023-03-11T11:24:30.784Z,1001.74
2023-03-11T11:25:30.784Z,1001.69
2023-03-11T11:26:51.633Z,1001.80
2023-03-11T11:27:30.575Z,1001.69
2023-03-11T11:28:30.524Z,1001.76
2023-03-11T11:29:30.434Z,1001.71
2023-03-11T11:30:30.409Z,1001.65
2023-03-11T11:31:30.303Z,1001.97
2023-03-11T11:32:51.250Z,1001.71
2023-03-11T11:33:30.165Z,1001.88
2023-03-11T11:34:30.122Z,1001.89
2023-03-11T11:35:30.054Z,1001.85
2023-03-11T11:36:29.954Z,1001.81
2023-03-11T11:37:29.885Z,1001.84
2023-03-11T11:38:50.827Z,1001.78
2023-03-11T11:39:29.746Z,1001.88
2023-03-11T11:40:29.683Z,1001.89
2023-03-11T11:41:29.620Z,1001.84
2023-03-11T11:42:29.554Z,1001.89
2023-03-11T11:43:29.481Z,1001.88
2023-03-11T11:44:50.392Z,1001.94
2023-03-11T11:45:29.338Z,1001.86
2023-03-11T11:46:29.298Z,1001.84
2023-03-11T11:47:29.205Z,1001.83
2023-03-11T11:48:29.139Z,1001.89
2023-03-11T11:49:29.072Z,1001.82
2023-03-11T11:50:49.997Z,1001.88
2023-03-11T11:51:28.942Z,1001.81
2023-03-11T11:52:28.881Z,1001.88
2023-03-11T11:53:28.804Z,1001.89
2023-03-11T11:54:28.734Z,1001.92
2023-03-11T11:55:28.663Z,1001.88
2023-03-11T11:56:49.587Z,1001.89
2023-03-11T11:57:28.540Z,1001.88
2023-03-11T11:58:28.458Z,1001.92
2023-03-11T11:59:28.388Z,1001.94
2023-03-11T12:00:28.343Z,1001.86
2023-03-11T12:01:28.253Z,1001.95
2023-03-11T12:02:49.180Z,1001.92
2023-03-11T12:03:28.193Z,1001.99
2023-03-11T12:04:28.057Z,1001.89
2023-03-11T12:05:28.023Z,1001.98
2023-03-11T12:06:27.917Z,1002.07
2023-03-11T12:07:27.839Z,1001.96
2023-03-11T12:08:48.763Z,1002.00
2023-03-11T12:09:27.704Z,1001.99
2023-03-11T12:10:27.634Z,1002.01
2023-03-11T12:11:27.608Z,1002.03
2023-03-11T12:12:27.506Z,1002.02
2023-03-11T12:13:27.442Z,1001.97
2023-03-11T12:14:48.352Z,1002.02
2023-03-11T12:15:27.298Z,1002.06
2023-03-11T12:16:27.253Z,1001.98
2023-03-11T12:17:27.193Z,1002.04
2023-03-11T12:18:27.098Z,1002.05
2023-03-11T12:19:27.023Z,1002.02
2023-03-11T12:20:47.965Z,1002.04
2023-03-11T12:21:26.907Z,1002.07